Time;durP1;ratioP1;P1;durP2;ratioP2;P2;SDS_P1;SDS_P2;PMS_P1;PMS_P2;Temp;Humidity;BMP_temperature;BMP_pressure;BME280_temperature;BME280_humidity;BME280_pressure;Samples;Min_cycle;Max_cycle;Signal;HPM_P1;HPM_P2
2022/03/25 00:01:08;;;;;;;21.17;10.98;;;3.70;99.90;;;;;;5095913;28;20474;-66
2022/03/25 00:03:34;;;;;;;17.92;9.85;;;3.70;99.90;;;;;;5096127;28;20108;-61
2022/03/25 00:05:59;;;;;;;20.27;11.43;;;3.60;99.90;;;;;;5096364;28;20024;-62
2022/03/25 00:08:26;;;;;;;22.70;11.00;;;3.60;99.90;;;;;;5111935;28;20097;-61
2022/03/25 00:10:52;;;;;;;24.05;11.32;;;3.50;99.90;;;;;;5094455;28;20028;-61
2022/03/25 00:13:18;;;;;;;25.20;11.15;;;3.50;99.90;;;;;;5095438;28;20135;-61
2022/03/25 00:15:44;;;;;;;25.30;10.77;;;3.40;99.90;;;;;;5095901;28;20028;-61
2022/03/25 00:18:09;;;;;;;22.23;10.75;;;3.40;99.90;;;;;;5095750;28;20102;-61
2022/03/25 00:20:35;;;;;;;23.45;11.02;;;3.40;99.90;;;;;;5094344;28;20118;-61
2022/03/25 00:23:01;;;;;;;20.48;10.85;;;3.30;99.90;;;;;;5095507;28;20112;-61
2022/03/25 00:25:28;;;;;;;22.42;10.68;;;3.30;99.90;;;;;;5095708;28;20052;-61
2022/03/25 00:27:54;;;;;;;22.42;10.90;;;3.30;99.90;;;;;;5094621;28;20027;-61
2022/03/25 00:30:19;;;;;;;29.90;11.63;;;3.30;99.90;;;;;;5093790;28;20076;-61
2022/03/25 00:32:46;;;;;;;23.33;10.85;;;3.40;99.90;;;;;;5093950;28;20024;-61
2022/03/25 00:35:11;;;;;;;21.73;11.35;;;3.30;99.90;;;;;;5095407;28;20024;-61
2022/03/25 00:37:37;;;;;;;22.70;11.45;;;3.10;99.90;;;;;;5095267;28;20043;-61
2022/03/25 00:40:04;;;;;;;22.65;11.05;;;3.10;99.90;;;;;;5095355;28;20440;-61
2022/03/25 00:42:48;;;;;;;20.83;10.63;;;3.10;99.90;;;;;;5095386;28;20040;-61
2022/03/25 00:45:14;;;;;;;23.08;11.05;;;3.10;99.90;;;;;;5093849;28;20054;-61
2022/03/25 00:47:40;;;;;;;22.15;10.85;;;3.00;99.90;;;;;;5094939;28;20107;-61
2022/03/25 00:50:06;;;;;;;20.83;10.63;;;3.10;99.90;;;;;;5095045;28;20529;-61
2022/03/25 00:52:32;;;;;;;22.08;10.75;;;3.00;99.90;;;;;;5093831;28;20067;-61
2022/03/25 00:54:58;;;;;;;24.13;10.93;;;3.00;99.90;;;;;;5094957;28;20442;-70
2022/03/25 00:57:23;;;;;;;22.45;11.23;;;2.90;99.90;;;;;;5094819;28;20024;-62
2022/03/25 00:59:49;;;;;;;26.05;10.52;;;2.90;99.90;;;;;;5093766;28;20448;-62
2022/03/25 01:02:15;;;;;;;24.58;11.13;;;2.80;99.90;;;;;;5093762;28;20028;-68
2022/03/25 01:04:41;;;;;;;24.63;11.30;;;2.90;99.90;;;;;;5093709;28;20465;-65
2022/03/25 01:07:06;;;;;;;28.30;11.35;;;2.90;99.90;;;;;;5094992;28;20081;-62
2022/03/25 01:09:32;;;;;;;24.20;11.45;;;2.70;99.90;;;;;;5094615;28;20016;-62
2022/03/25 01:11:58;;;;;;;23.67;10.63;;;2.70;99.90;;;;;;5094692;28;20040;-63
2022/03/25 01:14:24;;;;;;;24.40;10.80;;;3.80;99.90;;;;;;5094915;28;20044;-62
2022/03/25 01:16:50;;;;;;;24.02;11.40;;;2.70;99.90;;;;;;5094324;28;20044;-63
2022/03/25 01:19:16;;;;;;;23.65;11.00;;;2.70;99.90;;;;;;5094525;28;20032;-62
2022/03/25 01:21:42;;;;;;;25.45;12.27;;;2.60;99.90;;;;;;5094699;28;20020;-61
2022/03/25 01:24:07;;;;;;;24.08;11.10;;;2.60;99.90;;;;;;5094372;28;20081;-61
2022/03/25 01:26:33;;;;;;;29.00;11.13;;;2.60;99.90;;;;;;5094718;28;20023;-61
2022/03/25 01:28:59;;;;;;;25.00;11.70;;;2.50;99.90;;;;;;5109721;28;20028;-61
2022/03/25 01:31:25;;;;;;;22.63;11.23;;;2.50;99.90;;;;;;5094460;28;20107;-61
2022/03/25 01:33:50;;;;;;;23.48;11.30;;;2.60;99.90;;;;;;5094257;28;20438;-61
2022/03/25 01:36:18;;;;;;;23.17;11.60;;;2.50;99.90;;;;;;5093919;28;20024;-61
2022/03/25 01:38:44;;;;;;;22.50;11.38;;;2.70;99.90;;;;;;5094068;28;20016;-61
2022/03/25 01:41:10;;;;;;;24.67;10.77;;;2.50;99.90;;;;;;5094348;28;20036;-61
2022/03/25 01:43:36;;;;;;;22.45;12.15;;;2.40;99.90;;;;;;5092799;28;20482;-61
2022/03/25 01:46:02;;;;;;;23.67;10.98;;;2.40;99.90;;;;;;5093808;28;20024;-61
2022/03/25 01:48:28;;;;;;;27.85;11.50;;;3.00;99.90;;;;;;5094158;28;20030;-61
2022/03/25 01:50:53;;;;;;;21.40;10.77;;;2.40;99.90;;;;;;5093879;28;20020;-61
2022/03/25 01:53:36;;;;;;;26.25;11.40;;;2.30;99.90;;;;;;5094022;28;20028;-61
2022/03/25 01:56:03;;;;;;;24.85;11.38;;;2.20;99.90;;;;;;5093750;28;20054;-61
2022/03/25 01:58:31;;;;;;;28.77;11.52;;;2.20;99.90;;;;;;5093938;28;20024;-61
2022/03/25 02:00:58;;;;;;;24.25;10.63;;;2.20;99.90;;;;;;5093797;28;20020;-61
2022/03/25 02:03:24;;;;;;;23.20;10.68;;;2.20;99.90;;;;;;5092652;28;20123;-61
2022/03/25 02:05:50;;;;;;;25.27;11.68;;;2.10;99.90;;;;;;5093931;28;20024;-61
2022/03/25 02:08:17;;;;;;;26.50;11.27;;;2.10;99.90;;;;;;5092723;28;20028;-61
2022/03/25 02:10:42;;;;;;;25.13;11.25;;;2.00;99.90;;;;;;5092550;28;20026;-61
2022/03/25 02:13:09;;;;;;;21.50;11.43;;;2.20;99.90;;;;;;5093345;28;20056;-61
2022/03/25 02:15:38;;;;;;;23.92;10.60;;;2.00;99.90;;;;;;5093530;28;20480;-61
2022/03/25 02:18:06;;;;;;;32.08;10.82;;;1.90;99.90;;;;;;5094036;28;20028;-61
2022/03/25 02:20:33;;;;;;;25.52;10.32;;;1.90;99.90;;;;;;5093828;28;20028;-61
2022/03/25 02:22:59;;;;;;;22.10;11.15;;;1.80;99.90;;;;;;5094245;28;20601;-61
2022/03/25 02:25:29;;;;;;;21.70;11.02;;;1.80;99.90;;;;;;5092464;28;20111;-61
2022/03/25 02:27:59;;;;;;;25.48;10.73;;;1.80;99.90;;;;;;5092484;28;20034;-61
2022/03/25 02:30:29;;;;;;;21.38;11.48;;;2.50;99.90;;;;;;5094097;28;20028;-61
2022/03/25 02:33:01;;;;;;;22.58;11.07;;;1.70;99.90;;;;;;5093677;28;20483;-61
2022/03/25 02:35:43;;;;;;;26.48;10.40;;;2.00;99.90;;;;;;5093780;28;20483;-61
2022/03/25 02:38:11;;;;;;;23.85;10.80;;;1.70;99.90;;;;;;5093610;28;20107;-61
2022/03/25 02:40:37;;;;;;;25.30;10.80;;;1.70;99.90;;;;;;5093743;28;20031;-61
2022/03/25 02:43:04;;;;;;;24.42;10.85;;;1.70;99.90;;;;;;5092244;28;20034;-61
2022/03/25 02:45:30;;;;;;;23.60;11.23;;;1.70;99.90;;;;;;5094033;28;20024;-61
2022/03/25 02:47:55;;;;;;;21.83;10.68;;;1.70;99.90;;;;;;5093756;28;20089;-61
2022/03/25 02:50:21;;;;;;;27.05;10.80;;;2.80;99.90;;;;;;5094122;28;20031;-61
2022/03/25 02:52:47;;;;;;;22.42;10.88;;;1.70;99.90;;;;;;5097196;28;20032;-61
2022/03/25 02:55:12;;;;;;;25.55;10.45;;;1.70;99.90;;;;;;5095891;28;20467;-61
2022/03/25 02:57:38;;;;;;;24.88;10.15;;;1.70;99.90;;;;;;5095929;28;20043;-61
2022/03/25 03:00:09;;;;;;;29.48;10.85;;;1.70;99.90;;;;;;5095895;28;20055;-61
2022/03/25 03:02:38;;;;;;;23.30;10.68;;;1.60;99.90;;;;;;5097196;28;20031;-61
2022/03/25 03:05:07;;;;;;;23.60;10.63;;;1.60;99.90;;;;;;5097369;28;20133;-61
2022/03/25 03:07:34;;;;;;;;;;;1.50;99.90;;;;;;5095863;28;20032;-61
2022/03/25 03:09:59;;;;;;;22.30;10.15;;;1.50;99.90;;;;;;5097010;28;19911;-61
2022/03/25 03:12:25;;;;;;;23.83;10.40;;;1.50;99.90;;;;;;5096536;28;20036;-61
2022/03/25 03:14:51;;;;;;;23.05;10.20;;;1.50;99.90;;;;;;5097232;28;20125;-61
2022/03/25 03:17:17;;;;;;;19.58;10.75;;;1.50;99.90;;;;;;5096831;28;20376;-61
2022/03/25 03:19:42;;;;;;;20.98;9.90;;;1.70;99.90;;;;;;5096777;28;20495;-61
2022/03/25 03:22:08;;;;;;;22.35;10.02;;;1.40;99.90;;;;;;5096838;28;20024;-61
2022/03/25 03:24:34;;;;;;;23.23;11.10;;;1.40;99.90;;;;;;5096965;28;20361;-61
2022/03/25 03:26:59;;;;;;;20.98;9.85;;;1.50;99.90;;;;;;5095558;28;20118;-61
2022/03/25 03:29:25;;;;;;;24.45;10.63;;;1.30;99.90;;;;;;5096720;28;20467;-61
2022/03/25 03:31:51;;;;;;;22.13;10.43;;;1.50;99.90;;;;;;5096453;28;20444;-61
2022/03/25 03:34:17;;;;;;;23.00;10.80;;;1.30;99.90;;;;;;5096519;28;20064;-61
2022/03/25 03:36:42;;;;;;;27.15;11.18;;;1.20;99.90;;;;;;5096415;28;20103;-61
2022/03/25 03:39:08;;;;;;;26.45;11.07;;;1.20;99.90;;;;;;5096375;28;20024;-61
2022/03/25 03:41:34;;;;;;;25.48;11.40;;;1.20;99.90;;;;;;5095054;28;20024;-61
2022/03/25 03:44:00;;;;;;;20.33;10.68;;;1.10;99.90;;;;;;5095986;28;20031;-61
2022/03/25 03:46:26;;;;;;;27.58;10.90;;;1.10;99.90;;;;;;5096391;28;20111;-61
2022/03/25 03:48:51;;;;;;;22.73;9.85;;;1.10;99.90;;;;;;5095012;28;20051;-61
2022/03/25 03:51:17;;;;;;;22.38;10.93;;;1.00;99.90;;;;;;5096142;28;20024;-61
2022/03/25 03:53:43;;;;;;;21.50;11.07;;;1.00;99.90;;;;;;5096278;28;20154;-61
2022/03/25 03:56:08;;;;;;;26.75;10.82;;;1.00;99.90;;;;;;5094911;28;20028;-61
2022/03/25 03:58:34;;;;;;;27.30;10.80;;;0.90;99.90;;;;;;5096222;28;20024;-61
2022/03/25 04:00:59;;;;;;;25.90;11.73;;;0.90;99.90;;;;;;5093337;28;20452;-61
2022/03/25 04:03:26;;;;;;;25.13;10.55;;;0.90;99.90;;;;;;5095919;28;20044;-61
2022/03/25 04:05:51;;;;;;;24.77;11.23;;;0.90;99.90;;;;;;5094597;28;20020;-61
2022/03/25 04:08:17;;;;;;;22.58;10.45;;;0.90;99.90;;;;;;5095932;28;20024;-61
2022/03/25 04:10:42;;;;;;;25.70;11.52;;;0.80;99.90;;;;;;5095787;28;20032;-61
2022/03/25 04:13:08;;;;;;;21.55;9.73;;;0.90;99.90;;;;;;5095409;28;20058;-61
2022/03/25 04:15:34;;;;;;;27.52;10.63;;;0.80;99.90;;;;;;5094447;28;20024;-62
2022/03/25 04:18:00;;;;;;;25.10;11.75;;;0.80;99.90;;;;;;5094387;28;20024;-61
2022/03/25 04:20:26;;;;;;;23.40;11.05;;;0.70;99.90;;;;;;5095647;28;20020;-61
2022/03/25 04:22:52;;;;;;;25.95;10.05;;;0.80;99.90;;;;;;5095535;28;20107;-61
2022/03/25 04:25:36;;;;;;;22.30;10.70;;;0.70;99.90;;;;;;5095962;28;20028;-61
2022/03/25 04:28:02;;;;;;;25.02;10.70;;;0.70;99.90;;;;;;5095236;28;20107;-61
2022/03/25 04:30:31;;;;;;;28.02;10.57;;;0.70;99.90;;;;;;5095398;28;20103;-61
2022/03/25 04:32:57;;;;;;;28.73;10.15;;;0.60;99.90;;;;;;5094009;28;20032;-62
2022/03/25 04:35:24;;;;;;;23.67;10.80;;;0.60;99.90;;;;;;5094027;28;20089;-61
2022/03/25 04:38:09;;;;;;;28.30;10.63;;;0.60;99.90;;;;;;5095247;28;20043;-62
2022/03/25 04:40:34;;;;;;;21.15;10.30;;;0.60;99.90;;;;;;5095253;28;20046;-61
2022/03/25 04:43:01;;;;;;;24.15;9.95;;;0.60;99.90;;;;;;5095130;28;20020;-61
2022/03/25 04:45:29;;;;;;;23.23;10.52;;;0.70;99.90;;;;;;5094834;28;20031;-61
2022/03/25 04:47:54;;;;;;;27.73;11.38;;;0.50;99.90;;;;;;5095078;28;20028;-61
2022/03/25 04:50:21;;;;;;;22.73;9.95;;;0.50;99.90;;;;;;5093702;28;20463;-61
2022/03/25 04:52:47;;;;;;;22.65;10.32;;;0.50;99.90;;;;;;5094005;28;20418;-61
2022/03/25 04:55:14;;;;;;;26.92;10.90;;;2.90;99.90;;;;;;5094933;28;20023;-61
2022/03/25 04:57:40;;;;;;;28.23;11.50;;;0.70;99.90;;;;;;5093599;28;20110;-61
2022/03/25 05:00:08;;;;;;;31.60;11.05;;;0.50;99.90;;;;;;5094817;28;20025;-61
2022/03/25 05:02:34;;;;;;;22.35;10.90;;;0.50;99.90;;;;;;5093523;28;20162;-61
2022/03/25 05:05:00;;;;;;;27.08;11.05;;;0.50;99.90;;;;;;5094777;28;20020;-62
2022/03/25 05:07:26;;;;;;;22.65;10.38;;;0.50;99.90;;;;;;5095035;28;20024;-62
2022/03/25 05:09:52;;;;;;;25.17;11.68;;;0.50;99.90;;;;;;5094638;28;20035;-61
2022/03/25 05:12:18;;;;;;;28.98;11.52;;;0.50;99.90;;;;;;5094122;28;20106;-62
2022/03/25 05:14:43;;;;;;;25.23;10.95;;;0.90;99.90;;;;;;5093038;28;20101;-61
2022/03/25 05:20:31;;;;;;;29.90;11.45;;;0.60;99.90;;;;;;5094659;28;20027;-62
2022/03/25 05:22:57;;;;;;;31.58;12.05;;;0.60;99.90;;;;;;5093283;28;20024;-62
2022/03/25 05:25:23;;;;;;;25.33;11.55;;;0.60;99.90;;;;;;5094397;28;20020;-61
2022/03/25 05:27:50;;;;;;;30.67;12.45;;;0.70;99.90;;;;;;5110125;28;20050;-61
2022/03/25 05:30:22;;;;;;;26.52;12.27;;;0.70;99.90;;;;;;5094499;28;20131;-62
2022/03/25 05:32:48;;;;;;;30.00;11.38;;;0.80;99.90;;;;;;5093289;28;20032;-62
2022/03/25 05:35:15;;;;;;;26.90;11.35;;;0.80;99.90;;;;;;5094238;28;20103;-61
2022/03/25 05:37:40;;;;;;;26.27;11.65;;;0.80;99.90;;;;;;5094249;28;20353;-62
2022/03/25 05:40:08;;;;;;;30.83;11.45;;;0.80;99.90;;;;;;5094252;28;20027;-62
2022/03/25 05:42:34;;;;;;;41.47;12.82;;;0.90;99.90;;;;;;5094327;28;20028;-62
2022/03/25 05:45:00;;;;;;;27.42;11.85;;;1.00;99.90;;;;;;5094071;28;20059;-62
2022/03/25 05:47:26;;;;;;;27.42;12.20;;;1.00;99.90;;;;;;5094360;28;20064;-62
2022/03/25 05:49:52;;;;;;;24.13;11.65;;;1.20;99.90;;;;;;5094060;28;20077;-62
2022/03/25 05:52:17;;;;;;;22.10;11.38;;;1.40;99.90;;;;;;5109631;28;20383;-65
2022/03/25 05:54:43;;;;;;;25.95;11.90;;;1.60;99.90;;;;;;5094219;28;20026;-62
2022/03/25 05:57:09;;;;;;;25.95;11.30;;;1.90;99.90;;;;;;5094014;28;20032;-63
2022/03/25 05:59:34;;;;;;;28.67;11.68;;;2.00;99.90;;;;;;5109641;28;20024;-64
2022/03/25 06:02:00;;;;;;;36.90;12.68;;;2.50;99.90;;;;;;5093754;28;20024;-62
2022/03/25 06:04:26;;;;;;;26.13;12.32;;;2.50;99.90;;;;;;5094117;28;20077;-63
2022/03/25 06:06:51;;;;;;;26.55;11.93;;;2.80;99.90;;;;;;5092593;28;20024;-64
2022/03/25 06:09:17;;;;;;;28.60;13.35;;;3.00;99.90;;;;;;5092571;28;20035;-64
2022/03/25 06:11:43;;;;;;;24.67;11.27;;;3.20;99.90;;;;;;5093841;28;20027;-64
2022/03/25 06:17:30;;;;;;;26.92;12.07;;;3.60;99.90;;;;;;5093832;28;20100;-63
2022/03/25 06:23:18;;;;;;;22.92;11.38;;;6.30;99.90;;;;;;5094115;28;20100;-63
2022/03/25 06:29:25;;;;;;;26.30;11.57;;;4.70;99.90;;;;;;5097842;28;20057;-64
2022/03/25 06:31:51;;;;;;;23.10;11.80;;;5.00;99.90;;;;;;5097755;28;20031;-63
2022/03/25 06:34:20;;;;;;;24.38;12.32;;;5.10;99.90;;;;;;5097777;28;20020;-64
2022/03/25 06:36:48;;;;;;;27.98;12.50;;;5.40;99.90;;;;;;5098359;28;20020;-63
2022/03/25 06:39:14;;;;;;;26.38;13.45;;;5.70;99.90;;;;;;5098278;28;20111;-63
2022/03/25 06:41:39;;;;;;;22.85;12.40;;;6.00;99.90;;;;;;5096292;28;20059;-63
2022/03/25 06:44:05;;;;;;;26.45;13.25;;;6.20;99.90;;;;;;5096581;28;20020;-63
2022/03/25 06:46:32;;;;;;;27.65;12.77;;;6.50;99.90;;;;;;5097905;28;20024;-63
2022/03/25 06:48:58;;;;;;;28.13;13.27;;;6.80;99.80;;;;;;5097318;28;20020;-64
2022/03/25 06:51:23;;;;;;;28.95;13.07;;;6.90;98.70;;;;;;5097366;28;20092;-66
2022/03/25 06:53:50;;;;;;;29.05;12.20;;;7.20;98.60;;;;;;5097335;28;20527;-64
2022/03/25 06:56:16;;;;;;;26.17;12.45;;;7.50;98.00;;;;;;5098369;28;20024;-67
2022/03/25 06:58:41;;;;;;;28.05;11.75;;;7.90;97.00;;;;;;5098849;28;20027;-64
2022/03/25 07:01:07;;;;;;;25.48;12.50;;;8.10;95.60;;;;;;5098821;28;20034;-66
2022/03/25 07:03:33;;;;;;;24.83;11.65;;;8.10;95.40;;;;;;5098700;28;20028;-65
2022/03/25 07:06:02;;;;;;;30.35;12.50;;;8.10;95.10;;;;;;5097026;28;20379;-64
2022/03/25 07:08:29;;;;;;;27.07;12.03;;;8.30;94.90;;;;;;5097702;28;20097;-64
2022/03/25 07:10:55;;;;;;;24.30;12.25;;;8.90;93.90;;;;;;5096151;28;20343;-63
2022/03/25 07:13:21;;;;;;;24.75;12.68;;;9.40;92.40;;;;;;5097011;28;20051;-63
2022/03/25 07:15:48;;;;;;;28.85;12.85;;;9.80;90.10;;;;;;5096876;28;20028;-63
2022/03/25 07:18:13;;;;;;;25.63;11.98;;;10.30;87.20;;;;;;5095698;28;20032;-64
2022/03/25 07:20:39;;;;;;;25.75;12.20;;;10.70;82.30;;;;;;5096665;28;20028;-64
2022/03/25 07:23:05;;;;;;;32.92;13.05;;;11.00;77.10;;;;;;5096678;28;20032;-63
2022/03/25 07:25:31;;;;;;;30.30;13.60;;;11.30;76.10;;;;;;5096292;28;20024;-64
2022/03/25 07:27:57;;;;;;;28.48;13.30;;;11.70;71.30;;;;;;5096406;28;20016;-63
2022/03/25 07:30:23;;;;;;;29.40;12.68;;;12.10;68.70;;;;;;5095860;28;20110;-64
2022/03/25 07:32:49;;;;;;;27.33;12.65;;;12.50;64.00;;;;;;5096351;28;20162;-63
2022/03/25 07:35:16;;;;;;;23.42;12.93;;;12.80;62.90;;;;;;5095903;28;20024;-63
2022/03/25 07:37:42;;;;;;;29.27;13.32;;;13.20;60.60;;;;;;5096436;28;20077;-64
2022/03/25 07:40:10;;;;;;;29.60;13.07;;;13.50;58.50;;;;;;5096303;28;20086;-64
2022/03/25 07:42:40;;;;;;;29.88;14.15;;;13.80;56.50;;;;;;5096385;28;20032;-64
2022/03/25 07:45:10;;;;;;;25.33;13.68;;;14.10;52.70;;;;;;5096190;28;20094;-64
2022/03/25 07:47:41;;;;;;;27.50;14.65;;;14.20;52.60;;;;;;5096337;28;20032;-64
2022/03/25 07:50:09;;;;;;;28.75;14.38;;;14.60;52.70;;;;;;5094939;28;20111;-64
2022/03/25 07:52:35;;;;;;;29.35;13.85;;;15.00;50.80;;;;;;5096469;28;20032;-64
2022/03/25 07:55:00;;;;;;;25.88;15.02;;;15.50;48.40;;;;;;5096377;28;20032;-64
2022/03/25 07:57:26;;;;;;;27.63;15.25;;;15.60;46.80;;;;;;5095146;28;20055;-64
2022/03/25 07:59:52;;;;;;;28.00;15.48;;;15.80;44.80;;;;;;5094992;28;20070;-64
2022/03/25 08:02:17;;;;;;;28.52;15.20;;;16.10;46.00;;;;;;5095540;28;20017;-65
2022/03/25 08:04:43;;;;;;;30.30;14.85;;;16.60;43.70;;;;;;5095566;28;20481;-65
2022/03/25 08:07:09;;;;;;;24.40;15.95;;;16.90;41.40;;;;;;5095783;28;20028;-65
2022/03/25 08:09:34;;;;;;;21.67;12.43;;;17.10;40.50;;;;;;5111407;28;20024;-65
2022/03/25 08:12:01;;;;;;;24.65;13.40;;;17.10;36.70;;;;;;5095384;28;20024;-64
2022/03/25 08:14:26;;;;;;;28.75;13.15;;;17.00;37.40;;;;;;5094128;28;20058;-64
2022/03/25 08:16:52;;;;;;;25.90;12.48;;;17.40;37.30;;;;;;5095486;28;20024;-64
2022/03/25 08:19:18;;;;;;;20.83;12.20;;;17.70;35.50;;;;;;5095305;28;20028;-64
2022/03/25 08:21:43;;;;;;;17.63;12.18;;;17.90;35.40;;;;;;5095156;28;20020;-64
2022/03/25 08:29:38;;;;;;;19.80;13.35;;;18.50;34.30;;;;;;5095097;28;20045;-66
2022/03/25 08:32:04;;;;;;;22.70;12.57;;;18.60;34.00;;;;;;5095330;28;20532;-65
2022/03/25 08:34:30;;;;;;;25.67;14.07;;;18.20;34.00;;;;;;5095279;28;20093;-65
2022/03/25 08:36:55;;;;;;;19.52;12.68;;;18.00;34.50;;;;;;5095254;28;20468;-64
2022/03/25 08:39:22;;;;;;;24.77;13.43;;;18.20;34.20;;;;;;5095148;28;20067;-65
2022/03/25 08:41:49;;;;;;;31.83;14.38;;;18.20;34.20;;;;;;5095167;28;20047;-65
2022/03/25 08:44:14;;;;;;;21.15;12.50;;;18.20;34.40;;;;;;5110651;28;20031;-66
2022/03/25 08:46:40;;;;;;;22.52;12.10;;;18.30;34.00;;;;;;5093189;28;20039;-65
2022/03/25 08:52:28;;;;;;;19.83;11.93;;;18.10;33.70;;;;;;5094901;28;20407;-65
2022/03/25 08:54:54;;;;;;;17.85;11.80;;;18.50;33.80;;;;;;5093554;28;20032;-65
2022/03/25 08:57:19;;;;;;;24.67;12.48;;;19.00;33.10;;;;;;5094892;28;20027;-56
2022/03/25 08:59:45;;;;;;;20.80;12.23;;;19.30;33.00;;;;;;5094947;28;20028;-64
2022/03/25 09:02:10;;;;;;;25.75;14.30;;;19.50;32.90;;;;;;5094910;28;20030;-64
2022/03/25 09:04:36;;;;;;;21.30;13.18;;;19.90;32.20;;;;;;5094623;28;20073;-64
2022/03/25 09:07:02;;;;;;;23.85;14.02;;;20.30;31.60;;;;;;5094866;28;20447;-64
2022/03/25 09:09:28;;;;;;;21.25;13.50;;;20.70;30.80;;;;;;5094650;28;20067;-64
2022/03/25 09:11:54;;;;;;;24.63;14.05;;;20.20;30.60;;;;;;5093993;28;20077;-63
2022/03/25 09:14:20;;;;;;;20.80;13.43;;;20.20;31.50;;;;;;5093977;28;20135;-64
2022/03/25 09:16:45;;;;;;;25.98;14.15;;;20.60;30.90;;;;;;5094479;28;20436;-64
2022/03/25 09:19:12;;;;;;;19.20;13.77;;;20.80;30.20;;;;;;5094444;28;20031;-64
2022/03/25 09:21:37;;;;;;;24.50;13.25;;;20.20;30.60;;;;;;5093054;28;20028;-64
2022/03/25 09:24:04;;;;;;;27.83;14.57;;;20.60;30.90;;;;;;5094345;28;20024;-64
2022/03/25 09:26:30;;;;;;;20.30;12.75;;;21.60;30.00;;;;;;5093081;28;20024;-64
2022/03/25 09:28:56;;;;;;;24.77;13.15;;;21.90;29.60;;;;;;5094072;28;20058;-63
2022/03/25 09:31:22;;;;;;;22.92;12.70;;;22.40;29.00;;;;;;5092994;28;20064;-64
2022/03/25 09:33:48;;;;;;;23.25;14.38;;;22.20;28.70;;;;;;5094369;28;20028;-63
2022/03/25 09:36:15;;;;;;;23.33;14.00;;;22.60;28.50;;;;;;5094224;28;20024;-64
2022/03/25 09:38:40;;;;;;;28.42;14.60;;;22.20;28.80;;;;;;5094102;28;20463;-63
2022/03/25 09:41:07;;;;;;;20.27;14.80;;;22.40;28.90;;;;;;5093179;28;20099;-63
2022/03/25 09:43:34;;;;;;;22.10;15.07;;;22.50;28.80;;;;;;5094079;28;20035;-63
2022/03/25 09:46:00;;;;;;;25.67;14.70;;;22.90;28.70;;;;;;5094211;28;20031;-63
2022/03/25 09:48:26;;;;;;;20.02;12.93;;;23.10;28.10;;;;;;5094031;28;20364;-65
2022/03/25 09:50:52;;;;;;;23.60;15.60;;;23.50;28.00;;;;;;5092660;28;20114;-65
2022/03/25 09:53:18;;;;;;;24.63;14.63;;;23.90;27.60;;;;;;5092653;28;20528;-65
2022/03/25 09:55:46;;;;;;;23.73;14.45;;;24.30;27.30;;;;;;5092675;28;20028;-62
2022/03/25 09:58:18;;;;;;;21.42;13.48;;;23.50;27.30;;;;;;5093835;28;20024;-64
2022/03/25 10:00:49;;;;;;;22.77;13.75;;;24.20;27.60;;;;;;5092630;28;20448;-65
2022/03/25 10:03:26;;;;;;;24.05;14.57;;;25.00;26.80;;;;;;5094141;28;20039;-65
2022/03/25 10:05:57;;;;;;;21.35;14.68;;;24.90;26.70;;;;;;5092820;28;20085;-65
2022/03/25 10:08:33;;;;;;;20.20;14.27;;;25.20;26.20;;;;;;5093553;28;20521;-64
2022/03/25 10:11:26;;;;;;;19.70;13.90;;;25.70;26.00;;;;;;5093763;28;20028;-63
2022/03/25 10:14:15;;;;;;;23.00;13.80;;;25.70;26.00;;;;;;5088882;28;20488;-57
2022/03/25 10:16:42;;;;;;;19.08;12.77;;;25.60;25.90;;;;;;5093692;28;20467;-57
2022/03/25 10:19:09;;;;;;;18.95;12.10;;;25.70;26.00;;;;;;5093805;28;20063;-57
2022/03/25 10:22:00;;;;;;;17.27;12.50;;;24.60;27.20;;;;;;5093670;28;20035;-55
2022/03/25 10:24:48;;;;;;;20.23;12.00;;;24.30;26.30;;;;;;5093680;28;20472;-63
2022/03/25 10:27:19;;;;;;;22.73;12.35;;;23.80;26.20;;;;;;5092416;28;20074;-63
2022/03/25 10:29:46;;;;;;;17.38;11.30;;;23.80;26.50;;;;;;5092395;28;20081;-63
2022/03/25 10:32:19;;;;;;;19.27;11.20;;;24.30;26.00;;;;;;5093307;28;20472;-64
2022/03/25 10:34:59;;;;;;;17.92;11.48;;;24.20;25.80;;;;;;5093943;28;20028;-63
2022/03/25 10:37:26;;;;;;;15.32;10.13;;;24.00;25.80;;;;;;5093538;28;20020;-64
2022/03/25 10:39:52;;;;;;;15.52;10.40;;;24.60;25.50;;;;;;5092258;28;20456;-53
2022/03/25 10:42:18;;;;;;;16.38;10.23;;;24.10;25.50;;;;;;5093149;28;20016;-62
2022/03/25 10:44:44;;;;;;;12.80;9.57;;;24.20;25.50;;;;;;5093269;28;20380;-61
2022/03/25 10:50:31;;;;;;;13.85;10.25;;;23.40;25.50;;;;;;5093533;28;20104;-63
2022/03/25 10:56:19;;;;;;;16.98;10.70;;;24.80;25.00;;;;;;5094089;28;20031;-63
2022/03/25 10:58:55;;;;;;;18.02;11.82;;;23.70;25.00;;;;;;5095670;28;20388;-64
2022/03/25 11:01:22;;;;;;;16.70;11.00;;;23.60;25.40;;;;;;5095746;28;20529;-63
2022/03/25 11:03:52;;;;;;;23.73;11.15;;;22.80;25.70;;;;;;5097162;28;20032;-63
2022/03/25 11:09:39;;;;;;;18.05;11.05;;;23.90;25.30;;;;;;5094076;28;20027;-63
2022/03/25 11:12:10;;;;;;;18.08;12.80;;;24.00;25.40;;;;;;5094934;28;20027;-63
2022/03/25 11:14:35;;;;;;;19.25;12.63;;;23.10;25.40;;;;;;5095220;28;20054;-63
2022/03/25 11:17:02;;;;;;;20.58;13.05;;;22.60;26.10;;;;;;5096863;28;20383;-58
2022/03/25 11:19:29;;;;;;;23.08;12.40;;;22.90;25.80;;;;;;5096987;28;20090;-57
2022/03/25 11:21:57;;;;;;;19.25;12.60;;;23.50;25.80;;;;;;5096630;28;20051;-58
2022/03/25 11:24:36;;;;;;;20.48;12.70;;;23.80;25.80;;;;;;5096623;28;20028;-57
2022/03/25 11:27:31;;;;;;;16.35;12.63;;;24.10;25.70;;;;;;5096665;28;20028;-58
2022/03/25 11:30:09;;;;;;;18.65;12.55;;;24.60;25.20;;;;;;5096822;28;20112;-57
2022/03/25 11:33:06;;;;;;;20.08;13.40;;;24.20;25.40;;;;;;5096875;28;20029;-58
2022/03/25 11:35:42;;;;;;;21.50;13.43;;;23.50;25.80;;;;;;5096307;28;20178;-57
2022/03/25 11:38:14;;;;;;;32.33;14.23;;;23.70;25.70;;;;;;5097621;28;20107;-58
2022/03/25 11:40:42;;;;;;;23.15;13.43;;;24.20;26.40;;;;;;5098413;28;20059;-57
2022/03/25 11:43:18;;;;;;;22.87;13.87;;;24.60;25.40;;;;;;5096028;28;20048;-57
2022/03/25 11:45:46;;;;;;;17.58;13.63;;;25.00;25.10;;;;;;5097517;28;20041;-58
2022/03/25 11:48:11;;;;;;;24.60;14.40;;;25.00;24.90;;;;;;5095167;28;20028;-57
2022/03/25 11:50:39;;;;;;;21.33;14.57;;;25.00;24.90;;;;;;5096447;28;20032;-57
2022/03/25 11:53:11;;;;;;;22.52;14.77;;;25.40;24.90;;;;;;5096164;28;20375;-58
2022/03/25 11:56:09;;;;;;;20.83;15.60;;;25.50;24.60;;;;;;5095897;28;20034;-58
2022/03/25 11:58:55;;;;;;;22.20;16.23;;;25.80;24.60;;;;;;5096993;28;20035;-57
2022/03/25 12:01:22;;;;;;;22.02;15.45;;;25.90;23.80;;;;;;5096294;28;20062;-65
2022/03/25 12:03:50;;;;;;;24.15;17.00;;;25.50;23.60;;;;;;5094865;28;20032;-65
2022/03/25 12:06:17;;;;;;;21.40;16.92;;;25.50;23.80;;;;;;5094906;28;20486;-65
2022/03/25 12:09:07;;;;;;;24.60;16.27;;;26.20;23.90;;;;;;5094991;28;20026;-65
2022/03/25 12:11:56;;;;;;;25.38;16.85;;;26.10;23.70;;;;;;5094759;28;20472;-63
2022/03/25 12:14:31;;;;;;;24.05;16.48;;;26.60;23.60;;;;;;5094800;28;20132;-65
2022/03/25 12:16:57;;;;;;;23.85;16.25;;;26.40;23.40;;;;;;5094452;28;20024;-65
2022/03/25 12:19:28;;;;;;;25.23;18.17;;;26.60;23.80;;;;;;5094849;28;20073;-64
2022/03/25 12:21:57;;;;;;;22.92;17.50;;;26.50;23.60;;;;;;5095153;28;20113;-66
2022/03/25 12:24:24;;;;;;;22.02;16.25;;;27.40;23.30;;;;;;5095587;28;20121;-65
2022/03/25 12:27:05;;;;;;;23.75;17.80;;;28.10;23.20;;;;;;5095911;28;20024;-66
2022/03/25 12:29:39;;;;;;;22.95;17.52;;;27.70;23.10;;;;;;5094795;28;20111;-64
2022/03/25 12:32:07;;;;;;;22.00;17.30;;;26.90;22.90;;;;;;5095576;28;20040;-64
2022/03/25 12:34:51;;;;;;;25.98;17.92;;;25.90;23.10;;;;;;5111331;28;20463;-65
2022/03/25 12:37:34;;;;;;;21.92;16.88;;;26.40;23.60;;;;;;5095562;28;20138;-65
2022/03/25 12:40:28;;;;;;;26.67;17.92;;;27.30;23.10;;;;;;5095473;28;20028;-65
2022/03/25 12:42:54;;;;;;;23.25;17.55;;;27.30;23.00;;;;;;5094970;28;20474;-70
2022/03/25 12:45:39;;;;;;;35.75;19.60;;;27.40;23.10;;;;;;5093803;28;20081;-65
2022/03/25 12:48:16;;;;;;;22.98;17.27;;;27.20;23.00;;;;;;5094047;28;20028;-65
2022/03/25 12:50:50;;;;;;;26.38;18.08;;;27.30;23.20;;;;;;5095486;28;20030;-64
2022/03/25 12:53:21;;;;;;;24.73;17.55;;;27.10;23.10;;;;;;5094235;28;20062;-64
2022/03/25 12:55:46;;;;;;;24.08;16.35;;;26.60;23.60;;;;;;5095224;28;20063;-65
2022/03/25 12:58:13;;;;;;;21.38;16.38;;;26.50;23.10;;;;;;5094963;28;20059;-65
2022/03/25 13:00:40;;;;;;;20.50;16.20;;;25.60;23.40;;;;;;5094424;28;20028;-65
2022/03/25 13:03:08;;;;;;;22.77;16.73;;;25.40;23.80;;;;;;5094762;28;20032;-65
2022/03/25 13:05:34;;;;;;;24.70;15.38;;;25.90;23.60;;;;;;5094551;28;20032;-65
2022/03/25 13:08:00;;;;;;;24.08;15.80;;;25.80;23.70;;;;;;5094633;28;20024;-65
2022/03/25 13:10:30;;;;;;;26.27;16.30;;;26.10;23.90;;;;;;5094684;28;20028;-65